Time;durP1;ratioP1;P1;durP2;ratioP2;P2;SDS_P1;SDS_P2;PMS_P1;PMS_P2;Temp;Humidity;BMP_temperature;BMP_pressure;BME280_temperature;BME280_humidity;BME280_pressure;Samples;Min_cycle;Max_cycle;Signal;HPM_P1;HPM_P2
2022/01/01 00:01:32;;;;;;;220.32;131.13;;;6.10;99.90;;;;;;5034923;28;20030;-87
2022/01/01 00:03:58;;;;;;;192.45;120.05;;;6.00;99.90;;;;;;5034837;28;20392;-87
2022/01/01 00:06:24;;;;;;;176.57;112.45;;;5.90;99.90;;;;;;5034222;28;20049;-87
2022/01/01 00:08:50;;;;;;;184.30;113.03;;;5.80;99.90;;;;;;5016623;28;20440;-87
2022/01/01 00:11:15;;;;;;;167.02;101.93;;;5.80;99.90;;;;;;5034283;28;20021;-86
2022/01/01 00:13:41;;;;;;;134.35;85.15;;;5.80;99.90;;;;;;5034358;28;20033;-87
2022/01/01 00:16:10;;;;;;;136.63;81.70;;;5.80;99.90;;;;;;5016578;28;20075;-87
2022/01/01 00:18:36;;;;;;;118.82;71.85;;;5.80;99.90;;;;;;5016512;28;20499;-87
2022/01/01 00:21:03;;;;;;;108.97;68.38;;;5.80;99.90;;;;;;5016560;28;20032;-87
2022/01/01 00:23:29;;;;;;;87.50;51.58;;;5.70;99.90;;;;;;5034181;28;20030;-87
2022/01/01 00:25:55;;;;;;;72.57;44.50;;;5.80;99.90;;;;;;5034427;28;20487;-87
2022/01/01 00:28:20;;;;;;;84.25;52.90;;;5.80;99.90;;;;;;5034032;28;20026;-87
2022/01/01 00:30:46;;;;;;;70.68;42.22;;;5.80;99.90;;;;;;5016341;28;20397;-87
2022/01/01 00:33:12;;;;;;;72.18;42.30;;;5.70;99.90;;;;;;5016331;28;20055;-87
2022/01/01 00:35:39;;;;;;;63.05;38.40;;;5.80;99.90;;;;;;5033977;28;20389;-87
2022/01/01 00:38:05;;;;;;;79.10;49.15;;;5.80;99.90;;;;;;5033941;28;20030;-87
2022/01/01 00:40:31;;;;;;;58.00;32.08;;;5.90;99.90;;;;;;5016175;28;20025;-87
2022/01/01 00:42:56;;;;;;;64.22;39.22;;;5.90;99.90;;;;;;5034100;28;20021;-87
2022/01/01 00:45:23;;;;;;;59.78;36.60;;;6.00;99.90;;;;;;5016354;28;20031;-86
2022/01/01 00:47:49;;;;;;;46.47;30.92;;;6.10;99.90;;;;;;5016381;28;20029;-87
2022/01/01 00:50:14;;;;;;;57.95;34.88;;;6.10;99.90;;;;;;5034075;28;20029;-87
2022/01/01 00:52:42;;;;;;;44.15;25.90;;;6.10;99.90;;;;;;5016154;28;20397;-87
2022/01/01 00:55:08;;;;;;;56.78;34.05;;;6.00;99.90;;;;;;5016054;28;20564;-87
2022/01/01 00:57:34;;;;;;;56.13;32.97;;;6.00;99.90;;;;;;5033711;28;20096;-87
2022/01/01 01:00:01;;;;;;;55.65;34.85;;;6.10;99.90;;;;;;5033547;28;20045;-87
2022/01/01 01:02:27;;;;;;;57.90;31.92;;;6.10;99.90;;;;;;5033593;28;20060;-86
2022/01/01 01:04:53;;;;;;;45.15;30.25;;;6.00;99.90;;;;;;5033466;28;20049;-87
2022/01/01 01:07:18;;;;;;;60.53;38.80;;;6.20;99.90;;;;;;5033393;28;20045;-87
2022/01/01 01:09:44;;;;;;;50.17;32.45;;;6.20;99.90;;;;;;5033665;28;20021;-87
2022/01/01 01:12:10;;;;;;;39.30;24.25;;;6.10;99.90;;;;;;5015800;28;20033;-87
2022/01/01 01:14:40;;;;;;;43.63;24.10;;;6.10;99.90;;;;;;5015647;28;20018;-87
2022/01/01 01:17:07;;;;;;;46.17;26.58;;;6.10;99.90;;;;;;5015778;28;20207;-87
2022/01/01 01:19:33;;;;;;;35.10;22.60;;;6.00;99.90;;;;;;5033352;28;20385;-86
2022/01/01 01:21:58;;;;;;;35.38;21.58;;;6.10;99.90;;;;;;5015544;28;20029;-87
2022/01/01 01:24:25;;;;;;;41.25;24.08;;;6.00;99.90;;;;;;5033284;28;20030;-87
2022/01/01 01:26:53;;;;;;;35.58;23.25;;;6.00;99.90;;;;;;5015585;28;20036;-86
2022/01/01 01:29:19;;;;;;;41.83;27.17;;;6.00;99.90;;;;;;5015390;28;20025;-87
2022/01/01 01:31:46;;;;;;;37.30;23.80;;;6.10;99.90;;;;;;5015459;28;20098;-87
2022/01/01 01:34:12;;;;;;;40.20;27.17;;;6.10;99.90;;;;;;5015615;28;20033;-87
2022/01/01 01:36:38;;;;;;;29.33;18.67;;;6.10;99.90;;;;;;5015357;28;20021;-87
2022/01/01 01:39:05;;;;;;;38.95;24.10;;;6.00;99.90;;;;;;5015483;28;20033;-87
2022/01/01 01:41:31;;;;;;;31.60;20.55;;;6.00;99.90;;;;;;5015388;28;20397;-87
2022/01/01 01:44:03;;;;;;;39.83;24.67;;;6.10;99.90;;;;;;5033188;28;20025;-87
2022/01/01 01:46:29;;;;;;;27.40;17.55;;;6.10;99.90;;;;;;5033384;28;20113;-87
2022/01/01 01:48:55;;;;;;;32.40;19.60;;;6.00;99.90;;;;;;5015286;28;20032;-87
2022/01/01 01:51:21;;;;;;;31.50;18.65;;;5.80;99.90;;;;;;5015371;28;20026;-87
2022/01/01 01:53:47;;;;;;;33.08;16.73;;;5.60;99.90;;;;;;5033070;28;20021;-87
2022/01/01 01:56:13;;;;;;;31.60;19.52;;;5.50;99.90;;;;;;5033314;28;20037;-86
2022/01/01 01:58:39;;;;;;;29.38;17.80;;;5.50;99.90;;;;;;5033001;28;20022;-87
2022/01/01 02:01:27;;;;;;;23.05;14.90;;;5.40;99.90;;;;;;5015245;28;20152;-87
2022/01/01 02:03:53;;;;;;;25.30;15.82;;;5.40;99.90;;;;;;5032426;28;20503;-87
2022/01/01 02:06:20;;;;;;;25.55;16.88;;;5.30;99.90;;;;;;5032739;28;20076;-87
2022/01/01 02:08:49;;;;;;;22.63;14.25;;;5.40;99.90;;;;;;5015213;28;20030;-87
2022/01/01 02:11:17;;;;;;;28.63;16.33;;;5.30;99.90;;;;;;5015078;28;20061;-87
2022/01/01 02:14:03;;;;;;;16.30;12.05;;;5.30;99.90;;;;;;5015144;28;20543;-87
2022/01/01 02:16:55;;;;;;;23.42;13.98;;;5.20;99.90;;;;;;5015145;28;20028;-87
2022/01/01 02:19:23;;;;;;;19.45;13.18;;;5.30;99.90;;;;;;5032560;28;20045;-87
2022/01/01 02:21:50;;;;;;;25.52;15.30;;;5.30;99.90;;;;;;5015134;28;20496;-87
2022/01/01 02:24:15;;;;;;;20.85;12.85;;;5.20;99.90;;;;;;5032769;28;20026;-87
2022/01/01 02:26:41;;;;;;;25.60;16.92;;;5.30;99.90;;;;;;5033001;28;20030;-87
2022/01/01 02:29:07;;;;;;;26.33;14.73;;;5.50;99.90;;;;;;5014976;28;20432;-87
2022/01/01 02:31:33;;;;;;;20.40;13.82;;;5.40;99.90;;;;;;5014972;28;20053;-87
2022/01/01 02:34:08;;;;;;;31.85;19.35;;;5.40;99.90;;;;;;5017234;28;20473;-87
2022/01/01 02:36:44;;;;;;;35.85;18.92;;;5.60;99.90;;;;;;5036283;28;20032;-87
2022/01/01 02:39:19;;;;;;;29.73;17.73;;;5.70;99.90;;;;;;5018601;28;20026;-87
2022/01/01 02:41:46;;;;;;;24.42;14.43;;;5.90;99.90;;;;;;5018560;28;20136;-87
2022/01/01 02:44:12;;;;;;;25.42;16.30;;;5.80;99.90;;;;;;5018438;28;20503;-87
2022/01/01 02:46:38;;;;;;;21.95;14.35;;;5.90;99.90;;;;;;5018383;28;20025;-87
2022/01/01 02:49:04;;;;;;;23.25;14.52;;;6.00;99.90;;;;;;5018401;28;20040;-86
2022/01/01 02:51:30;;;;;;;26.08;13.40;;;6.10;99.90;;;;;;5018395;28;20425;-86
2022/01/01 02:53:57;;;;;;;24.27;14.98;;;6.20;99.90;;;;;;5036062;28;20018;-87
2022/01/01 02:56:24;;;;;;;22.15;13.73;;;6.10;99.90;;;;;;5036047;28;20026;-86
2022/01/01 02:58:49;;;;;;;20.27;12.40;;;6.10;99.90;;;;;;5035913;28;20036;-87
2022/01/01 03:01:15;;;;;;;22.88;13.27;;;6.20;99.90;;;;;;5018134;28;20455;-87
2022/01/01 03:03:42;;;;;;;24.00;14.18;;;6.00;99.90;;;;;;5018088;28;20477;-86
2022/01/01 03:06:08;;;;;;;22.45;15.35;;;6.00;99.90;;;;;;5035519;28;20034;-86
2022/01/01 03:08:34;;;;;;;15.68;10.65;;;6.20;99.90;;;;;;5035737;28;20056;-86
2022/01/01 03:11:02;;;;;;;19.60;12.82;;;6.10;99.90;;;;;;5035660;28;20029;-86
2022/01/01 03:13:29;;;;;;;18.38;11.18;;;6.10;99.90;;;;;;5035901;28;20071;-86
2022/01/01 03:15:55;;;;;;;17.42;10.95;;;6.00;99.90;;;;;;5017813;28;20021;-86
2022/01/01 03:18:20;;;;;;;16.92;10.35;;;6.00;99.90;;;;;;5017737;28;20025;-86
2022/01/01 03:20:46;;;;;;;17.23;12.00;;;5.90;99.90;;;;;;5035486;28;20064;-86
2022/01/01 03:23:12;;;;;;;18.58;11.88;;;5.80;99.90;;;;;;5017743;28;20036;-86
2022/01/01 03:25:38;;;;;;;19.20;13.45;;;5.80;99.90;;;;;;5017712;28;20029;-86
2022/01/01 03:28:04;;;;;;;21.92;12.57;;;5.80;99.90;;;;;;5017623;28;20032;-86
2022/01/01 03:30:30;;;;;;;18.85;13.40;;;5.70;99.90;;;;;;5035182;28;20143;-86
2022/01/01 03:32:56;;;;;;;20.40;13.80;;;5.70;99.90;;;;;;5017501;28;20449;-86
2022/01/01 03:35:22;;;;;;;21.02;14.32;;;5.80;99.90;;;;;;5017456;28;20021;-86
2022/01/01 03:37:47;;;;;;;20.13;13.73;;;5.90;99.90;;;;;;5035693;28;20075;-86
2022/01/01 03:40:13;;;;;;;21.73;13.27;;;5.90;99.90;;;;;;5017313;28;20037;-86
2022/01/01 03:42:39;;;;;;;22.00;13.93;;;6.00;99.90;;;;;;5035353;28;20036;-86
2022/01/01 03:45:07;;;;;;;20.73;13.10;;;6.10;99.90;;;;;;5016113;28;20025;-86
2022/01/01 03:47:33;;;;;;;19.92;13.43;;;6.20;99.90;;;;;;5034992;28;20379;-86
2022/01/01 03:49:59;;;;;;;20.48;13.80;;;6.40;99.90;;;;;;5017144;28;20021;-86
2022/01/01 03:52:25;;;;;;;17.17;12.45;;;6.50;99.90;;;;;;5034884;28;20022;-86
2022/01/01 03:54:51;;;;;;;19.05;12.75;;;6.40;99.90;;;;;;5017139;28;20017;-86
2022/01/01 03:57:18;;;;;;;23.38;13.50;;;6.40;99.90;;;;;;5017001;28;20025;-86
2022/01/01 03:59:44;;;;;;;18.08;12.48;;;6.40;99.90;;;;;;5016964;28;20029;-86
2022/01/01 04:02:10;;;;;;;22.05;13.63;;;6.30;99.90;;;;;;5034952;28;20021;-86
2022/01/01 04:04:35;;;;;;;22.83;13.18;;;6.40;99.90;;;;;;5034572;28;20026;-86
2022/01/01 04:07:02;;;;;;;19.10;13.50;;;6.40;99.90;;;;;;5016680;28;20413;-86
2022/01/01 04:09:28;;;;;;;19.63;13.27;;;6.40;99.90;;;;;;5016739;28;20481;-86
2022/01/01 04:11:53;;;;;;;19.60;13.13;;;6.40;99.90;;;;;;5016746;28;20021;-87
2022/01/01 04:14:19;;;;;;;23.50;12.75;;;6.40;99.90;;;;;;5034519;28;20029;-86
2022/01/01 04:16:50;;;;;;;20.75;12.90;;;6.40;99.90;;;;;;5034651;28;20385;-86
2022/01/01 04:19:15;;;;;;;21.80;12.07;;;6.40;99.90;;;;;;5016702;28;20029;-86
2022/01/01 04:21:41;;;;;;;21.60;13.05;;;6.40;99.90;;;;;;5034359;28;20029;-86
2022/01/01 04:24:07;;;;;;;23.52;13.93;;;6.30;99.90;;;;;;5016526;28;20439;-86
2022/01/01 04:26:33;;;;;;;19.20;12.95;;;6.40;99.90;;;;;;5016545;28;20034;-86
2022/01/01 04:28:59;;;;;;;19.33;12.30;;;6.30;99.90;;;;;;5016405;28;20116;-86
2022/01/01 04:31:25;;;;;;;20.35;12.00;;;6.40;99.90;;;;;;5016408;28;20109;-86
2022/01/01 04:33:51;;;;;;;21.27;13.18;;;6.40;99.90;;;;;;5016432;28;20022;-86
2022/01/01 04:36:16;;;;;;;18.48;12.50;;;6.40;99.90;;;;;;5034319;28;20021;-87
2022/01/01 04:38:44;;;;;;;21.27;12.73;;;6.40;99.90;;;;;;5034022;28;20517;-86
2022/01/01 04:41:13;;;;;;;21.08;11.82;;;6.50;99.90;;;;;;5033997;28;20063;-86
2022/01/01 04:43:40;;;;;;;16.30;11.57;;;6.60;99.90;;;;;;5016172;28;20045;-86
2022/01/01 04:46:06;;;;;;;19.40;10.90;;;6.60;99.90;;;;;;5016169;28;20018;-87
2022/01/01 04:48:36;;;;;;;21.55;13.25;;;6.70;99.90;;;;;;5033814;28;20036;-86
2022/01/01 04:51:09;;;;;;;18.67;11.98;;;6.70;99.90;;;;;;5016057;28;20504;-86
2022/01/01 04:53:36;;;;;;;17.48;11.73;;;6.70;99.90;;;;;;5016124;28;20021;-86
2022/01/01 04:56:06;;;;;;;18.35;10.38;;;6.70;99.90;;;;;;5033391;28;20017;-86
2022/01/01 04:58:32;;;;;;;15.88;10.30;;;6.70;99.90;;;;;;5016054;28;20064;-86
2022/01/01 05:00:58;;;;;;;14.55;9.40;;;6.60;99.90;;;;;;5016101;28;20436;-86
2022/01/01 05:03:23;;;;;;;18.20;9.60;;;6.60;99.90;;;;;;5033695;28;20025;-87
2022/01/01 05:05:49;;;;;;;18.42;11.55;;;6.60;99.90;;;;;;5015652;28;20053;-87
2022/01/01 05:08:15;;;;;;;17.27;11.88;;;6.70;99.90;;;;;;5033564;28;20104;-87
2022/01/01 05:10:41;;;;;;;18.10;11.25;;;6.60;99.90;;;;;;5033773;28;20496;-87
2022/01/01 05:13:06;;;;;;;18.02;10.50;;;6.60;99.90;;;;;;5033453;28;20033;-87
2022/01/01 05:15:32;;;;;;;16.25;11.05;;;6.60;99.90;;;;;;5015730;28;20025;-86
2022/01/01 05:17:58;;;;;;;20.83;11.38;;;6.60;99.90;;;;;;5033428;28;20507;-86
2022/01/01 05:20:24;;;;;;;18.10;11.10;;;6.60;99.90;;;;;;5015702;28;20040;-86
2022/01/01 05:22:49;;;;;;;15.75;10.38;;;6.40;99.90;;;;;;5033629;28;20036;-87
2022/01/01 05:25:15;;;;;;;16.20;11.32;;;6.50;99.90;;;;;;5015664;28;20025;-86
2022/01/01 05:27:42;;;;;;;18.67;12.30;;;6.50;99.90;;;;;;5015521;28;20032;-86
2022/01/01 05:30:09;;;;;;;21.33;13.10;;;6.50;99.90;;;;;;5033158;28;20022;-86
2022/01/01 05:32:35;;;;;;;15.85;11.43;;;6.50;99.90;;;;;;5015548;28;20088;-87
2022/01/01 05:35:01;;;;;;;18.30;10.68;;;6.50;99.90;;;;;;5015523;28;20022;-87
2022/01/01 05:37:27;;;;;;;18.80;11.10;;;6.50;99.90;;;;;;5033232;28;20423;-86
2022/01/01 05:39:52;;;;;;;16.35;11.48;;;6.30;99.90;;;;;;5015427;28;20030;-86
2022/01/01 05:42:18;;;;;;;18.50;11.77;;;6.30;99.90;;;;;;5015530;28;20025;-86
2022/01/01 05:44:44;;;;;;;16.95;11.63;;;6.30;99.90;;;;;;5033095;28;20507;-86
2022/01/01 05:47:10;;;;;;;16.58;11.15;;;6.30;99.90;;;;;;5015468;28;20036;-86
2022/01/01 05:49:35;;;;;;;17.67;11.75;;;6.30;99.90;;;;;;5032998;28;20489;-86
2022/01/01 05:52:02;;;;;;;16.55;11.02;;;6.30;99.90;;;;;;5033617;28;20032;-86
2022/01/01 05:54:27;;;;;;;19.63;10.82;;;6.30;99.90;;;;;;5015355;28;20029;-86
2022/01/01 05:56:53;;;;;;;16.85;11.20;;;6.30;99.90;;;;;;5033051;28;20481;-86
2022/01/01 05:59:19;;;;;;;16.33;10.50;;;6.30;99.90;;;;;;5033052;28;20029;-86
2022/01/01 06:01:44;;;;;;;15.93;10.32;;;6.20;99.90;;;;;;5015360;28;20030;-86
2022/01/01 06:04:10;;;;;;;18.88;10.57;;;6.00;99.90;;;;;;5033349;28;20021;-87
2022/01/01 06:06:36;;;;;;;19.73;10.52;;;6.00;99.90;;;;;;5015053;28;20454;-87
2022/01/01 06:09:02;;;;;;;17.30;10.15;;;6.00;99.90;;;;;;5017719;28;20026;-86
2022/01/01 06:11:27;;;;;;;14.05;9.68;;;6.00;99.90;;;;;;5036808;28;20100;-86
2022/01/01 06:13:53;;;;;;;14.57;10.00;;;6.10;99.90;;;;;;5036754;28;20098;-87
2022/01/01 06:16:19;;;;;;;15.27;9.70;;;6.10;99.90;;;;;;5019288;28;20495;-87
2022/01/01 06:18:45;;;;;;;14.95;9.95;;;6.10;99.90;;;;;;5018920;28;20428;-86
2022/01/01 06:21:11;;;;;;;17.17;9.70;;;6.10;99.90;;;;;;5019076;28;20026;-87
2022/01/01 06:23:37;;;;;;;13.48;9.20;;;6.10;99.90;;;;;;5018819;28;20025;-87
2022/01/01 06:26:06;;;;;;;19.73;10.00;;;6.10;99.90;;;;;;5036561;28;20028;-86
2022/01/01 06:28:31;;;;;;;13.70;9.13;;;6.20;99.90;;;;;;5036542;28;20025;-86
2022/01/01 06:30:57;;;;;;;13.75;9.45;;;6.10;99.90;;;;;;5018712;28;20099;-86
2022/01/01 06:33:23;;;;;;;15.45;10.27;;;6.00;99.90;;;;;;5036638;28;20025;-87
2022/01/01 06:35:49;;;;;;;17.13;10.20;;;5.90;99.90;;;;;;5018695;28;20022;-87
2022/01/01 06:38:16;;;;;;;14.90;9.43;;;5.90;99.90;;;;;;5018509;28;20022;-87
2022/01/01 06:40:44;;;;;;;16.05;9.98;;;6.00;99.90;;;;;;5036314;28;20025;-86
2022/01/01 06:43:12;;;;;;;13.32;9.77;;;6.10;99.90;;;;;;5018518;28;20091;-86
2022/01/01 06:45:38;;;;;;;15.98;9.50;;;6.10;99.90;;;;;;5018436;28;20504;-86
2022/01/01 06:48:04;;;;;;;13.18;9.43;;;6.10;99.90;;;;;;5036116;28;20029;-87
2022/01/01 06:50:30;;;;;;;17.02;9.48;;;6.10;99.90;;;;;;5018184;28;20025;-86
2022/01/01 06:52:56;;;;;;;16.13;9.35;;;6.00;99.90;;;;;;5036014;28;20095;-87
2022/01/01 06:55:21;;;;;;;15.20;9.27;;;6.00;99.90;;;;;;5036050;28;20029;-86
2022/01/01 06:57:47;;;;;;;17.73;11.95;;;5.90;99.90;;;;;;5035964;28;20501;-86
2022/01/01 07:00:14;;;;;;;14.32;10.02;;;5.90;99.90;;;;;;5018260;28;20033;-86
2022/01/01 07:02:44;;;;;;;13.05;8.88;;;5.80;99.90;;;;;;5018102;28;20028;-86
2022/01/01 07:05:11;;;;;;;15.57;8.75;;;5.90;99.90;;;;;;5018077;28;20048;-86
2022/01/01 07:07:36;;;;;;;12.88;9.10;;;6.00;99.90;;;;;;5035546;28;20049;-86
2022/01/01 07:10:07;;;;;;;13.63;9.25;;;5.90;99.90;;;;;;5035753;28;20083;-87
2022/01/01 07:12:37;;;;;;;17.42;9.02;;;5.90;99.90;;;;;;5035748;28;20064;-87
2022/01/01 07:15:04;;;;;;;15.75;9.75;;;5.80;99.90;;;;;;5017989;28;20419;-87
2022/01/01 07:17:30;;;;;;;16.77;9.82;;;5.70;99.90;;;;;;5035645;28;20022;-87
2022/01/01 07:19:56;;;;;;;13.82;9.80;;;5.70;99.90;;;;;;5035585;28;20159;-86
2022/01/01 07:22:22;;;;;;;13.00;8.90;;;5.80;99.90;;;;;;5035787;28;20029;-87
2022/01/01 07:24:49;;;;;;;13.65;8.73;;;5.70;99.90;;;;;;5017650;28;20034;-87
2022/01/01 07:27:16;;;;;;;17.27;8.80;;;5.70;99.90;;;;;;5017707;28;20025;-87
2022/01/01 07:29:42;;;;;;;14.00;9.02;;;5.60;99.90;;;;;;5035363;28;20040;-86
2022/01/01 07:32:08;;;;;;;11.95;9.05;;;5.60;99.90;;;;;;5035595;28;20376;-87
2022/01/01 07:34:34;;;;;;;16.45;10.93;;;5.70;99.90;;;;;;5017517;28;20029;-86
2022/01/01 07:36:59;;;;;;;25.67;16.70;;;5.60;99.90;;;;;;5017537;28;20117;-86
2022/01/01 07:39:25;;;;;;;15.98;10.38;;;5.60;99.90;;;;;;5017523;28;20029;-87
2022/01/01 07:41:51;;;;;;;15.40;9.73;;;5.60;99.90;;;;;;5017448;28;20116;-86
2022/01/01 07:44:16;;;;;;;15.35;9.75;;;5.60;99.90;;;;;;5035352;28;20026;-86
2022/01/01 07:46:42;;;;;;;12.00;8.85;;;5.60;99.90;;;;;;5017344;28;20047;-86
2022/01/01 07:49:08;;;;;;;18.33;9.43;;;5.70;99.90;;;;;;5017131;28;20032;-86
2022/01/01 07:51:34;;;;;;;18.30;10.60;;;5.70;99.90;;;;;;5017248;28;20114;-87
2022/01/01 07:53:59;;;;;;;13.80;8.90;;;5.60;99.90;;;;;;5034954;28;20067;-87
2022/01/01 07:56:26;;;;;;;13.07;8.63;;;5.70;99.90;;;;;;5017092;28;20036;-87
2022/01/01 07:58:52;;;;;;;18.52;10.43;;;5.80;99.90;;;;;;5017083;28;20025;-86
2022/01/01 08:01:18;;;;;;;16.85;9.27;;;6.10;99.90;;;;;;5017112;28;20167;-86
2022/01/01 08:03:43;;;;;;;13.60;9.55;;;6.40;99.90;;;;;;5035002;28;20025;-86
2022/01/01 08:06:09;;;;;;;16.38;9.15;;;6.40;99.90;;;;;;5034601;28;20136;-86
2022/01/01 08:08:35;;;;;;;13.98;8.25;;;6.50;99.90;;;;;;5016912;28;20022;-86
2022/01/01 08:11:00;;;;;;;13.85;8.02;;;6.70;99.90;;;;;;5034518;28;20036;-86
2022/01/01 08:13:26;;;;;;;12.95;8.30;;;6.90;99.90;;;;;;5016773;28;20556;-86
2022/01/01 08:15:54;;;;;;;11.15;7.70;;;7.00;99.90;;;;;;5034723;28;20028;-86
2022/01/01 08:18:20;;;;;;;13.40;7.78;;;7.20;99.90;;;;;;5034487;28;20025;-86
2022/01/01 08:20:47;;;;;;;12.57;8.38;;;7.30;99.90;;;;;;5016649;28;20116;-87
2022/01/01 08:23:14;;;;;;;13.75;7.97;;;7.40;99.90;;;;;;5034395;28;20392;-86
2022/01/01 08:25:40;;;;;;;13.90;7.57;;;7.60;99.90;;;;;;5016549;28;20401;-86
2022/01/01 08:28:07;;;;;;;11.95;8.43;;;7.60;99.90;;;;;;5034205;28;20022;-87
2022/01/01 08:30:34;;;;;;;12.80;8.27;;;7.60;99.90;;;;;;5033551;28;20112;-87
2022/01/01 08:33:03;;;;;;;14.50;8.38;;;7.50;99.90;;;;;;5016627;28;20044;-86
2022/01/01 08:35:34;;;;;;;11.02;7.72;;;7.70;99.90;;;;;;5016400;28;20036;-86
2022/01/01 08:38:01;;;;;;;13.30;7.97;;;7.70;99.90;;;;;;5034373;28;20049;-87
2022/01/01 08:40:27;;;;;;;11.73;7.38;;;7.80;99.90;;;;;;5034011;28;20021;-86
2022/01/01 08:42:54;;;;;;;8.85;6.53;;;8.00;99.90;;;;;;5034031;28;20100;-87
2022/01/01 08:45:20;;;;;;;9.38;6.75;;;8.10;99.90;;;;;;5016208;28;20034;-87
2022/01/01 08:47:46;;;;;;;8.20;6.55;;;8.30;99.90;;;;;;5016269;28;20449;-86
2022/01/01 08:50:13;;;;;;;9.80;6.38;;;8.40;99.90;;;;;;5016116;28;20079;-86
2022/01/01 08:52:39;;;;;;;11.68;6.40;;;8.50;99.90;;;;;;5016042;28;20026;-86
2022/01/01 08:55:05;;;;;;;11.45;7.50;;;8.70;99.90;;;;;;5033725;28;20603;-86
2022/01/01 08:57:32;;;;;;;8.68;6.45;;;8.80;99.90;;;;;;5033756;28;20022;-86
2022/01/01 08:59:59;;;;;;;9.60;6.25;;;8.90;99.90;;;;;;5015935;28;20021;-86
2022/01/01 09:02:25;;;;;;;9.82;6.82;;;8.80;99.90;;;;;;5016026;28;20389;-86
2022/01/01 09:04:51;;;;;;;9.07;6.70;;;8.80;99.90;;;;;;5015790;28;20453;-87
2022/01/01 09:07:17;;;;;;;8.85;6.63;;;8.90;99.90;;;;;;5015734;28;20085;-87
2022/01/01 09:09:43;;;;;;;8.18;5.85;;;8.90;99.90;;;;;;5033436;28;20021;-86
2022/01/01 09:12:10;;;;;;;9.48;6.15;;;9.10;99.90;;;;;;5015808;28;20021;-86
2022/01/01 09:14:37;;;;;;;9.90;6.70;;;9.20;99.90;;;;;;5015800;28;20362;-86
2022/01/01 09:17:04;;;;;;;8.68;6.45;;;9.20;99.90;;;;;;5015749;28;20022;-86
2022/01/01 09:19:30;;;;;;;8.38;5.63;;;9.40;99.90;;;;;;5015815;28;20025;-86
2022/01/01 09:21:56;;;;;;;10.23;5.93;;;9.50;99.90;;;;;;5015890;28;20029;-86
2022/01/01 09:24:22;;;;;;;8.65;5.93;;;9.60;99.90;;;;;;5015691;28;20029;-86
2022/01/01 09:26:47;;;;;;;8.35;5.85;;;9.60;99.90;;;;;;5033415;28;20389;-86
2022/01/01 09:29:13;;;;;;;10.00;5.70;;;9.80;99.90;;;;;;5033197;28;20025;-86
2022/01/01 09:31:41;;;;;;;8.15;5.57;;;10.10;99.90;;;;;;5015534;28;20512;-87
2022/01/01 09:34:07;;;;;;;10.50;6.03;;;10.30;99.90;;;;;;5015526;28;20124;-87
2022/01/01 09:36:34;;;;;;;12.57;5.88;;;10.20;99.90;;;;;;5015452;28;20115;-86
2022/01/01 09:39:00;;;;;;;9.35;5.70;;;10.10;99.90;;;;;;5015533;28;20026;-86
2022/01/01 09:41:26;;;;;;;9.88;6.75;;;10.40;99.90;;;;;;5033383;28;20017;-87
2022/01/01 09:43:56;;;;;;;12.48;6.85;;;10.50;99.90;;;;;;5037515;28;20026;-86
2022/01/01 09:46:23;;;;;;;7.97;5.93;;;10.70;99.90;;;;;;5037568;28;20017;-86
2022/01/01 09:48:53;;;;;;;6.82;5.32;;;10.80;99.90;;;;;;5037224;28;20068;-86
2022/01/01 09:51:20;;;;;;;7.70;5.38;;;11.10;99.90;;;;;;5019368;28;20037;-86
2022/01/01 09:53:47;;;;;;;8.27;5.07;;;11.10;99.90;;;;;;5019372;28;20022;-86
2022/01/01 09:56:13;;;;;;;7.95;5.35;;;11.30;99.90;;;;;;5037134;28;20602;-86
2022/01/01 09:58:39;;;;;;;6.95;5.10;;;11.40;99.90;;;;;;5037002;28;20021;-86
2022/01/01 10:01:07;;;;;;;7.95;5.57;;;11.30;99.90;;;;;;5019171;28;20060;-86
2022/01/01 10:03:38;;;;;;;7.13;5.22;;;11.40;99.90;;;;;;5037176;28;20078;-86
2022/01/01 10:06:23;;;;;;;6.47;4.88;;;11.50;99.90;;;;;;5036665;28;20152;-86
2022/01/01 10:08:56;;;;;;;10.48;4.68;;;;;;;;;;5037176;28;20037;-86
2022/01/01 10:11:22;;;;;;;6.90;4.72;;;11.90;99.90;;;;;;5019062;28;20029;-86
2022/01/01 10:13:48;;;;;;;10.50;6.60;;;12.00;99.90;;;;;;5036730;28;20025;-86
2022/01/01 10:16:15;;;;;;;13.10;6.68;;;11.90;99.90;;;;;;5036762;28;20473;-86
2022/01/01 10:18:46;;;;;;;12.98;5.78;;;11.80;99.90;;;;;;5036746;28;20473;-86
2022/01/01 10:21:19;;;;;;;8.55;5.47;;;11.90;99.90;;;;;;5036667;28;20025;-86
2022/01/01 10:23:51;;;;;;;10.43;5.35;;;12.00;99.90;;;;;;5037117;28;20127;-86
2022/01/01 10:29:17;;;;;;;8.70;5.03;;;12.00;99.90;;;;;;5037069;28;20087;-86
2022/01/01 10:32:16;;;;;;;7.30;5.03;;;11.90;99.90;;;;;;5018701;28;20025;-86
2022/01/01 10:34:46;;;;;;;9.52;6.40;;;11.70;99.90;;;;;;4986862;28;20041;-86
2022/01/01 10:37:14;;;;;;;9.57;6.15;;;11.70;99.90;;;;;;5018596;28;20474;-86
2022/01/01 10:39:51;;;;;;;9.73;5.43;;;11.80;99.90;;;;;;5036281;28;20075;-86
2022/01/01 10:42:17;;;;;;;7.10;5.10;;;11.70;99.90;;;;;;5036254;28;20097;-86
2022/01/01 10:44:49;;;;;;;7.32;4.47;;;11.80;99.90;;;;;;5036416;28;20026;-86
2022/01/01 10:47:27;;;;;;;11.82;5.55;;;12.10;99.90;;;;;;5036092;28;20033;-86
2022/01/01 10:52:39;;;;;;;6.20;4.53;;;12.50;99.90;;;;;;5036112;28;20018;-86
2022/01/01 10:55:07;;;;;;;7.20;4.28;;;;;;;;;;5035514;28;20392;-86
2022/01/01 10:57:41;;;;;;;7.72;4.78;;;12.30;99.90;;;;;;5018219;28;20018;-86
2022/01/01 11:00:09;;;;;;;6.43;4.68;;;12.70;99.90;;;;;;5035992;28;20108;-86
2022/01/01 11:02:35;;;;;;;7.20;4.60;;;13.00;99.90;;;;;;5018163;28;20485;-86
2022/01/01 11:05:03;;;;;;;8.23;4.40;;;13.20;99.90;;;;;;5035772;28;20057;-86
2022/01/01 11:07:30;;;;;;;7.45;5.07;;;13.60;99.90;;;;;;5035639;28;20044;-86
2022/01/01 11:09:57;;;;;;;7.95;4.63;;;13.60;99.90;;;;;;5035705;28;20503;-86
2022/01/01 11:12:30;;;;;;;9.05;4.60;;;13.90;99.90;;;;;;5035719;28;20017;-86
2022/01/01 11:14:59;;;;;;;7.47;4.43;;;14.10;99.90;;;;;;5035638;28;20018;-86
2022/01/01 11:17:26;;;;;;;7.65;4.45;;;14.20;99.90;;;;;;5035589;28;20017;-86
2022/01/01 11:19:51;;;;;;;7.22;4.30;;;14.50;99.90;;;;;;5035516;28;20484;-86
2022/01/01 11:22:18;;;;;;;5.93;4.30;;;14.60;99.90;;;;;;5017656;28;20033;-86
2022/01/01 11:24:45;;;;;;;7.10;4.63;;;14.90;99.90;;;;;;5017622;28;20025;-86
2022/01/01 11:27:11;;;;;;;9.02;4.68;;;15.00;99.90;;;;;;5035658;28;20033;-87
2022/01/01 11:29:39;;;;;;;6.93;4.47;;;14.70;99.90;;;;;;5017882;28;20032;-86
2022/01/01 11:32:08;;;;;;;7.80;3.80;;;14.80;99.90;;;;;;5035347;28;20025;-87
2022/01/01 11:34:38;;;;;;;6.00;3.40;;;15.40;99.90;;;;;;5035387;28;20022;-86
2022/01/01 11:37:04;;;;;;;5.72;3.20;;;15.70;99.90;;;;;;5017597;28;20018;-86
2022/01/01 11:39:31;;;;;;;6.10;3.60;;;15.80;99.90;;;;;;5035218;28;20022;-86
2022/01/01 11:42:10;;;;;;;6.72;3.50;;;15.80;99.90;;;;;;5035437;28;20030;-87
2022/01/01 11:44:36;;;;;;;4.22;2.70;;;15.80;99.90;;;;;;5017339;28;20025;-86
2022/01/01 11:47:13;;;;;;;6.55;1.90;;;15.90;99.90;;;;;;5035000;28;20025;-87
2022/01/01 11:49:38;;;;;;;4.50;2.47;;;15.80;99.90;;;;;;5017195;28;20029;-86
2022/01/01 11:52:05;;;;;;;4.88;2.22;;;15.80;99.90;;;;;;5035208;28;20029;-87
2022/01/01 11:54:42;;;;;;;5.55;2.30;;;16.00;99.90;;;;;;5017121;28;20101;-86
2022/01/01 11:57:19;;;;;;;5.28;2.85;;;15.80;99.90;;;;;;5035158;28;20017;-87
2022/01/01 11:59:51;;;;;;;4.82;2.60;;;16.30;99.90;;;;;;5017090;28;20036;-87
2022/01/01 12:02:20;;;;;;;3.53;2.17;;;17.00;99.90;;;;;;5034999;28;20026;-87
2022/01/01 12:04:48;;;;;;;4.25;1.95;;;17.10;99.90;;;;;;5016839;28;20481;-87
2022/01/01 12:07:28;;;;;;;5.88;2.90;;;16.90;99.90;;;;;;5015934;28;20099;-87
2022/01/01 12:10:06;;;;;;;8.18;2.35;;;16.50;99.90;;;;;;5016791;28;20065;-87
2022/01/01 12:13:01;;;;;;;5.28;1.90;;;16.50;99.90;;;;;;5016849;28;20052;-87
2022/01/01 12:15:51;;;;;;;3.10;1.98;;;16.30;99.90;;;;;;5034848;28;20021;-87
2022/01/01 12:18:18;;;;;;;2.88;1.58;;;16.00;99.90;;;;;;5016849;28;20032;-87
2022/01/01 12:20:57;;;;;;;5.90;2.10;;;16.10;99.90;;;;;;5016708;28;20120;-87
2022/01/01 12:23:25;;;;;;;3.40;2.17;;;15.90;99.90;;;;;;5034402;28;20025;-87
2022/01/01 12:25:53;;;;;;;2.28;1.38;;;15.80;99.90;;;;;;5016662;28;20029;-87
2022/01/01 12:28:27;;;;;;;3.97;1.65;;;16.10;99.90;;;;;;5016493;28;20044;-87
2022/01/01 12:31:06;;;;;;;2.70;1.30;;;16.30;99.90;;;;;;5016505;28;20054;-87
2022/01/01 12:33:38;;;;;;;2.58;1.63;;;16.40;99.90;;;;;;5034152;28;20075;-87
2022/01/01 12:36:06;;;;;;;2.28;1.60;;;16.30;99.90;;;;;;5034125;28;20017;-87
2022/01/01 12:38:34;;;;;;;4.20;1.45;;;16.50;99.90;;;;;;5034368;28;20024;-87
2022/01/01 12:41:41;;;;;;;4.00;1.70;;;16.60;99.90;;;;;;5016359;28;20064;-87
2022/01/01 12:44:10;;;;;;;2.60;1.20;;;16.60;99.90;;;;;;4990168;28;20116;-87
2022/01/01 12:46:39;;;;;;;6.63;1.50;;;16.80;99.90;;;;;;5016160;28;20029;-87
2022/01/01 12:49:07;;;;;;;2.47;1.02;;;17.00;99.90;;;;;;5016102;28;20120;-87
2022/01/01 12:51:37;;;;;;;3.92;1.30;;;17.20;99.90;;;;;;5033905;28;20025;-86